Time;durP1;ratioP1;P1;durP2;ratioP2;P2;SDS_P1;SDS_P2;PMS_P1;PMS_P2;Temp;Humidity;BMP_temperature;BMP_pressure;BME280_temperature;BME280_humidity;BME280_pressure;Samples;Min_cycle;Max_cycle;Signal;HPM_P1;HPM_P2
2023/12/16 00:00:26;;;;;;;18.15;7.13;;;;;;;9.05;65.62;103825.16;5092660;28;20034;-65
2023/12/16 00:02:52;;;;;;;21.02;7.78;;;;;;;9.03;65.87;103840.19;5077599;28;20114;-64
2023/12/16 00:05:17;;;;;;;17.52;7.32;;;;;;;9.04;65.43;103839.19;5086933;28;20032;-64
2023/12/16 00:07:42;;;;;;;21.65;7.47;;;;;;;9.03;65.54;103832.75;5090160;28;20025;-64
2023/12/16 00:10:09;;;;;;;23.67;9.48;;;;;;;9.03;65.27;103829.97;5089955;28;20038;-64
2023/12/16 00:12:34;;;;;;;24.60;9.43;;;;;;;9.05;65.38;103833.47;5073627;28;20033;-64
2023/12/16 00:15:00;;;;;;;24.85;8.32;;;;;;;9.02;65.24;103844.88;5073662;28;20391;-64
2023/12/16 00:17:28;;;;;;;20.65;8.65;;;;;;;9.01;65.36;103840.38;5083712;28;20032;-64
2023/12/16 00:19:53;;;;;;;25.17;8.23;;;;;;;8.99;65.22;103841.56;5091359;28;20023;-64
2023/12/16 00:22:18;;;;;;;23.60;10.32;;;;;;;8.98;65.08;103839.84;5091338;28;20673;-64
2023/12/16 00:24:43;;;;;;;28.52;10.07;;;;;;;9.00;65.44;103835.88;5091976;28;20032;-64
2023/12/16 00:27:09;;;;;;;30.40;10.15;;;;;;;8.99;65.18;103828.56;5091841;28;20032;-64
2023/12/16 00:29:34;;;;;;;27.23;9.32;;;;;;;9.02;65.57;103822.69;5076626;28;20234;-64
2023/12/16 00:32:02;;;;;;;33.22;9.70;;;;;;;9.01;65.52;103832.06;5091891;28;20103;-64
2023/12/16 00:34:28;;;;;;;24.45;9.38;;;;;;;9.02;65.14;103822.69;5092016;28;20081;-64
2023/12/16 00:36:54;;;;;;;27.10;8.88;;;;;;;9.02;65.27;103819.94;5090513;28;20039;-64
2023/12/16 00:39:20;;;;;;;27.67;8.73;;;;;;;9.01;64.68;103820.13;5090460;28;20020;-64
2023/12/16 00:41:45;;;;;;;23.02;8.10;;;;;;;9.01;65.04;103809.91;5082061;28;20482;-65
2023/12/16 00:44:11;;;;;;;25.77;9.20;;;;;;;9.00;65.23;103812.81;5090406;28;20131;-64
2023/12/16 00:46:37;;;;;;;25.58;8.68;;;;;;;9.01;64.84;103804.34;5077682;28;20139;-65
2023/12/16 00:49:02;;;;;;;38.40;10.27;;;;;;;9.02;65.01;103799.69;5081302;28;20047;-64
2023/12/16 00:51:27;;;;;;;27.08;9.55;;;;;;;8.99;64.30;103798.09;5091347;28;20023;-64
2023/12/16 00:53:53;;;;;;;27.55;9.70;;;;;;;9.02;65.06;103803.31;5091520;28;20036;-64
2023/12/16 00:56:18;;;;;;;20.17;6.93;;;;;;;9.03;64.79;103806.94;5077009;28;20036;-65
2023/12/16 00:58:43;;;;;;;18.58;6.68;;;;;;;9.01;64.48;103809.91;5070540;28;20111;-64
2023/12/16 01:01:13;;;;;;;17.48;6.25;;;;;;;9.01;65.07;103814.56;5072133;28;20028;-64
2023/12/16 01:03:40;;;;;;;24.35;7.95;;;;;;;8.99;64.95;103806.41;5081185;28;20048;-64
2023/12/16 01:06:06;;;;;;;18.17;6.72;;;;;;;8.97;65.21;103802.97;5077560;28;20107;-64
2023/12/16 01:08:32;;;;;;;19.65;7.32;;;;;;;8.99;65.13;103806.41;5090188;28;20123;-64
2023/12/16 01:10:58;;;;;;;29.77;9.50;;;;;;;9.00;64.77;103819.25;5091701;28;20034;-64
2023/12/16 01:13:23;;;;;;;29.75;10.35;;;;;;;9.02;65.01;103813.53;5090177;28;20031;-64
2023/12/16 01:15:49;;;;;;;28.63;9.77;;;;;;;9.03;64.92;103824.44;5087614;28;20021;-65
2023/12/16 01:18:14;;;;;;;29.80;10.00;;;;;;;9.00;64.48;103821.13;5070559;28;20032;-65
2023/12/16 01:20:40;;;;;;;41.13;12.38;;;;;;;8.96;64.85;103812.31;5071486;28;20027;-64
2023/12/16 01:23:05;;;;;;;31.17;10.13;;;;;;;9.00;64.51;103813.72;5073351;28;20032;-64
2023/12/16 01:25:30;;;;;;;13.65;6.75;;;;;;;8.99;64.83;103823.03;5088688;28;20028;-64
2023/12/16 01:27:56;;;;;;;18.90;7.07;;;;;;;8.97;64.97;103814.06;5088429;28;20032;-64
2023/12/16 01:30:21;;;;;;;17.42;5.70;;;;;;;8.99;65.01;103813.88;5087480;28;20043;-64
2023/12/16 01:32:46;;;;;;;17.90;5.90;;;;;;;8.99;64.65;103811.97;5089238;28;20027;-64
2023/12/16 01:35:14;;;;;;;19.83;6.50;;;;;;;9.01;64.61;103815.44;5075053;28;20082;-63
2023/12/16 01:37:40;;;;;;;17.40;7.05;;;;;;;8.97;64.65;103807.66;5091038;28;20043;-64
2023/12/16 01:40:06;;;;;;;13.35;6.47;;;;;;;8.99;64.66;103806.41;5087423;28;20036;-65
2023/12/16 01:42:31;;;;;;;13.73;5.57;;;;;;;8.99;64.42;103797.25;5081822;28;20035;-64
2023/12/16 01:44:57;;;;;;;17.10;6.45;;;;;;;8.97;64.75;103793.78;5089135;28;20061;-64
2023/12/16 01:47:22;;;;;;;16.38;5.90;;;;;;;9.00;64.71;103797.09;5090695;28;20028;-64
2023/12/16 01:49:48;;;;;;;19.15;6.93;;;;;;;9.00;64.88;103799.88;5087337;28;20459;-64
2023/12/16 01:52:14;;;;;;;15.45;6.10;;;;;;;9.02;65.07;103800.53;5095194;28;20036;-64
2023/12/16 01:54:40;;;;;;;16.23;5.13;;;;;;;9.00;64.55;103801.75;5082783;28;20048;-64
2023/12/16 01:57:06;;;;;;;13.60;5.20;;;;;;;8.98;64.64;103807.47;5074537;28;20060;-64
2023/12/16 01:59:31;;;;;;;12.30;4.50;;;;;;;9.00;65.18;103801.75;5084940;28;20039;-64
2023/12/16 02:01:58;;;;;;;15.60;4.75;;;;;;;8.97;64.52;103807.66;5088749;28;20036;-64
2023/12/16 02:04:23;;;;;;;16.10;5.43;;;;;;;8.96;63.98;103803.13;5082618;28;20029;-64
2023/12/16 02:06:49;;;;;;;13.25;4.50;;;;;;;8.93;64.54;103812.66;5074615;28;20474;-64
2023/12/16 02:09:16;;;;;;;17.40;5.05;;;;;;;8.93;65.16;103795.19;5073962;28;20017;-64
2023/12/16 02:11:41;;;;;;;14.30;4.93;;;;;;;8.94;64.61;103796.91;5084046;28;20103;-64
2023/12/16 02:14:06;;;;;;;11.90;4.22;;;;;;;8.95;64.90;103795.84;5082927;28;20132;-64
2023/12/16 02:16:32;;;;;;;11.80;4.13;;;;;;;8.96;65.07;103792.94;5079832;28;20032;-64
2023/12/16 02:18:57;;;;;;;12.27;4.57;;;;;;;8.93;64.46;103796.03;5080671;28;20029;-64
2023/12/16 02:21:22;;;;;;;14.85;5.03;;;;;;;8.94;64.44;103799.66;5085173;28;20173;-64
2023/12/16 02:23:48;;;;;;;18.35;5.00;;;;;;;8.90;64.62;103801.91;5089977;28;20057;-65
2023/12/16 02:26:13;;;;;;;12.60;4.53;;;;;;;8.92;64.60;103802.63;5094686;28;20035;-65
2023/12/16 02:28:39;;;;;;;13.90;4.80;;;;;;;8.91;64.43;103798.09;5091972;28;20063;-65
2023/12/16 02:31:05;;;;;;;11.60;4.60;;;;;;;8.92;64.62;103793.41;5078652;28;20038;-65
2023/12/16 02:33:30;;;;;;;17.80;4.80;;;;;;;8.89;64.83;103794.63;5094171;28;20391;-65
2023/12/16 02:35:55;;;;;;;12.48;4.72;;;;;;;8.87;64.26;103793.06;5083654;28;20040;-65
2023/12/16 02:38:23;;;;;;;15.27;5.30;;;;;;;8.81;63.83;103786.31;5074148;28;20043;-64
2023/12/16 02:40:50;;;;;;;11.85;4.32;;;;;;;8.81;64.34;103801.03;5089561;28;20138;-64
2023/12/16 02:43:15;;;;;;;12.55;4.38;;;;;;;8.82;64.18;103808.28;5090244;28;20040;-64
2023/12/16 02:45:40;;;;;;;13.60;5.10;;;;;;;8.83;64.79;103823.00;5094111;28;20109;-64
2023/12/16 02:48:06;;;;;;;12.80;4.55;;;;;;;8.81;64.50;103825.97;5089247;28;20459;-64
2023/12/16 02:50:31;;;;;;;16.98;5.07;;;;;;;8.77;64.83;103820.94;5074262;28;20024;-64
2023/12/16 02:52:56;;;;;;;15.77;4.72;;;;;;;8.73;64.91;103823.16;5074384;28;20039;-64
2023/12/16 02:55:22;;;;;;;13.50;4.93;;;;;;;8.71;64.36;103818.81;5094094;28;20494;-65
2023/12/16 02:57:47;;;;;;;13.23;4.90;;;;;;;8.73;65.07;103817.63;5082829;28;20028;-64
2023/12/16 03:00:13;;;;;;;12.70;4.82;;;;;;;8.67;65.43;103807.22;5079736;28;20426;-64
2023/12/16 03:02:38;;;;;;;13.63;4.70;;;;;;;8.70;65.52;103811.56;5084949;28;20050;-64
2023/12/16 03:05:09;;;;;;;16.50;5.22;;;;;;;8.72;65.38;103806.69;5074519;28;20357;-64
2023/12/16 03:07:34;;;;;;;14.20;5.28;;;;;;;8.70;65.00;103806.03;5073517;28;20040;-64
2023/12/16 03:10:00;;;;;;;14.55;4.85;;;;;;;8.69;65.30;103804.28;5084630;28;20400;-64
2023/12/16 03:12:25;;;;;;;16.08;4.57;;;;;;;8.69;65.42;103794.06;5072825;28;20031;-64
2023/12/16 03:14:51;;;;;;;13.20;4.63;;;;;;;8.65;64.99;103798.22;5074291;28;20016;-64
2023/12/16 03:17:16;;;;;;;16.83;5.15;;;;;;;8.64;64.97;103792.84;5073828;28;20039;-64
2023/12/16 03:19:42;;;;;;;15.43;5.28;;;;;;;8.62;65.15;103798.56;5078122;28;20054;-64
2023/12/16 03:22:07;;;;;;;17.90;5.78;;;;;;;8.65;64.81;103811.19;5092516;28;20028;-65
2023/12/16 03:24:33;;;;;;;11.45;4.57;;;;;;;8.63;64.94;103796.66;5093484;28;20044;-64
2023/12/16 03:26:58;;;;;;;12.02;4.63;;;;;;;8.64;65.25;103804.78;5092023;28;20020;-64
2023/12/16 03:29:23;;;;;;;13.88;5.30;;;;;;;8.63;65.42;103797.50;5092999;28;20035;-64
2023/12/16 03:31:49;;;;;;;16.55;5.25;;;;;;;8.62;65.07;103800.47;5090666;28;20028;-64
2023/12/16 03:34:14;;;;;;;17.55;5.20;;;;;;;8.61;64.73;103802.38;5091739;28;20403;-64
2023/12/16 03:36:39;;;;;;;12.82;5.03;;;;;;;8.60;65.05;103795.94;5077210;28;20606;-64
2023/12/16 03:39:04;;;;;;;16.45;5.45;;;;;;;8.62;65.35;103806.00;5091583;28;20122;-64
2023/12/16 03:41:34;;;;;;;12.43;5.57;;;;;;;8.60;64.98;103801.47;5077355;28;20029;-65
2023/12/16 03:43:59;;;;;;;13.50;4.57;;;;;;;8.62;65.51;103809.63;5072493;28;20024;-64
2023/12/16 03:46:24;;;;;;;13.52;5.63;;;;;;;8.61;65.01;103807.91;5083935;28;20032;-64
2023/12/16 03:48:50;;;;;;;15.75;5.15;;;;;;;8.64;65.46;103806.69;5080861;28;20052;-64
2023/12/16 03:51:15;;;;;;;15.80;5.30;;;;;;;8.62;65.48;103811.53;5074183;28;20369;-65
2023/12/16 03:53:40;;;;;;;14.63;5.72;;;;;;;8.64;65.74;103818.63;5085218;28;20040;-64
2023/12/16 03:56:06;;;;;;;12.07;4.88;;;;;;;8.63;65.49;103813.25;5075582;28;20054;-64
2023/12/16 03:58:31;;;;;;;14.25;5.13;;;;;;;8.59;65.42;103816.34;5092581;28;20109;-64
2023/12/16 04:00:56;;;;;;;14.75;5.03;;;;;;;8.59;65.22;103805.28;5084045;28;20036;-64
2023/12/16 04:03:22;;;;;;;13.65;5.30;;;;;;;8.57;65.10;103810.13;5072172;28;20021;-65
2023/12/16 04:05:47;;;;;;;18.75;5.75;;;;;;;8.60;65.21;103798.69;5081538;28;20039;-64
2023/12/16 04:08:12;;;;;;;14.45;5.43;;;;;;;8.64;65.79;103809.44;5089308;28;20038;-64
2023/12/16 04:10:38;;;;;;;16.42;5.28;;;;;;;8.62;65.79;103809.63;5089722;28;20058;-64
2023/12/16 04:13:04;;;;;;;16.95;5.97;;;;;;;8.66;65.81;103810.16;5086046;28;20028;-64
2023/12/16 04:15:29;;;;;;;17.27;5.05;;;;;;;8.66;65.00;103810.16;5085808;28;20030;-64
2023/12/16 04:17:54;;;;;;;17.10;6.05;;;;;;;8.67;65.63;103817.41;5081013;28;20062;-64
2023/12/16 04:20:19;;;;;;;15.52;5.57;;;;;;;8.66;65.22;103811.03;5072224;28;20196;-64
2023/12/16 04:22:45;;;;;;;13.50;5.25;;;;;;;8.67;65.93;103809.13;5086696;28;20101;-64
2023/12/16 04:25:10;;;;;;;16.55;4.85;;;;;;;8.69;66.30;103801.53;5081569;28;20034;-63
2023/12/16 04:27:38;;;;;;;15.40;5.45;;;;;;;8.66;66.15;103811.03;5071630;28;20024;-65
2023/12/16 04:30:04;;;;;;;16.95;5.35;;;;;;;8.67;65.80;103807.22;5071355;28;21139;-64
2023/12/16 04:32:30;;;;;;;15.27;5.57;;;;;;;8.66;65.88;103805.47;5080324;28;20036;-63
2023/12/16 04:34:55;;;;;;;17.33;5.38;;;;;;;8.67;66.58;103807.22;5072232;28;20366;-64
2023/12/16 04:37:21;;;;;;;14.85;5.70;;;;;;;8.66;65.88;103805.47;5079999;28;20462;-63
2023/12/16 04:39:55;;;;;;;15.13;5.13;;;;;;;8.68;66.21;103797.00;5087473;28;20040;-64
2023/12/16 04:42:20;;;;;;;12.10;5.05;;;;;;;8.64;66.23;103796.47;5090443;28;20024;-64
2023/12/16 04:44:46;;;;;;;16.58;5.07;;;;;;;8.64;66.36;103784.53;5072577;28;20399;-63
2023/12/16 04:47:11;;;;;;;14.93;5.18;;;;;;;8.63;66.13;103783.66;5071625;28;20052;-64
2023/12/16 04:49:37;;;;;;;17.05;5.30;;;;;;;8.62;66.16;103792.16;5084790;28;20132;-64
2023/12/16 04:52:02;;;;;;;15.82;5.35;;;;;;;8.63;66.29;103786.44;5090753;28;20075;-64
2023/12/16 04:54:28;;;;;;;17.00;5.30;;;;;;;8.65;66.44;103780.75;5081663;28;20036;-64
2023/12/16 04:56:53;;;;;;;12.60;5.32;;;;;;;8.63;66.20;103791.97;5070962;28;20413;-64
2023/12/16 04:59:19;;;;;;;12.00;4.88;;;;;;;8.66;66.57;103790.78;5071506;28;20551;-64
2023/12/16 05:01:44;;;;;;;18.90;5.45;;;;;;;8.66;66.83;103785.25;5071289;28;20474;-64
2023/12/16 05:04:09;;;;;;;15.90;5.15;;;;;;;8.64;66.69;103792.84;5071734;28;20036;-64
2023/12/16 05:06:34;;;;;;;14.85;4.65;;;;;;;8.63;66.84;103789.19;5086807;28;20120;-64
2023/12/16 05:09:00;;;;;;;11.73;5.07;;;;;;;8.59;66.36;103791.44;5089429;28;20032;-64
2023/12/16 05:11:31;;;;;;;15.60;5.25;;;;;;;8.56;66.47;103793.66;5090842;28;20035;-64
2023/12/16 05:13:57;;;;;;;16.20;4.97;;;;;;;8.57;66.93;103790.75;5082952;28;20032;-64
2023/12/16 05:16:23;;;;;;;10.88;4.85;;;;;;;8.52;67.06;103795.03;5071774;28;20028;-64
2023/12/16 05:18:48;;;;;;;13.82;5.05;;;;;;;8.51;66.97;103794.19;5086179;28;20032;-64
2023/12/16 05:21:14;;;;;;;14.70;4.90;;;;;;;8.52;66.88;103800.59;5082692;28;20021;-64
2023/12/16 05:23:39;;;;;;;10.98;5.03;;;;;;;8.54;66.87;103806.84;5071196;28;20024;-64
2023/12/16 05:26:04;;;;;;;16.80;5.53;;;;;;;8.52;66.68;103806.97;5084246;28;20044;-64
2023/12/16 05:28:32;;;;;;;16.60;4.97;;;;;;;8.48;66.73;103811.13;5084105;28;20042;-64
2023/12/16 05:30:57;;;;;;;13.88;5.25;;;;;;;8.48;66.80;103810.25;5075682;28;20032;-64
2023/12/16 05:33:22;;;;;;;14.38;5.18;;;;;;;8.45;66.55;103808.72;5080487;28;20495;-64
2023/12/16 05:35:48;;;;;;;15.60;5.22;;;;;;;8.45;66.74;103803.16;5071227;28;20098;-64
2023/12/16 05:38:13;;;;;;;16.88;5.53;;;;;;;8.46;66.73;103804.91;5070994;28;20033;-65
2023/12/16 05:40:38;;;;;;;14.25;4.80;;;;;;;8.48;66.98;103807.47;5071544;28;20023;-64
2023/12/16 05:43:04;;;;;;;15.18;5.10;;;;;;;8.47;67.09;103806.63;5070987;28;20392;-64
2023/12/16 05:45:29;;;;;;;12.82;4.45;;;;;;;8.47;67.28;103816.84;5070553;28;20025;-64
2023/12/16 05:48:03;;;;;;;12.57;4.68;;;;;;;8.46;67.03;103815.97;5080182;28;21917;-64
2023/12/16 05:50:29;;;;;;;12.15;4.93;;;;;;;8.46;67.14;103809.56;5083135;28;20024;-65
2023/12/16 05:52:54;;;;;;;14.40;5.22;;;;;;;8.46;66.82;103815.09;5086401;28;20104;-64
2023/12/16 05:55:19;;;;;;;11.45;4.65;;;;;;;8.43;66.91;103805.22;5085821;28;20024;-64
2023/12/16 05:57:45;;;;;;;15.30;5.72;;;;;;;8.43;66.57;103804.38;5077131;28;20036;-64
2023/12/16 06:00:13;;;;;;;16.52;5.25;;;;;;;8.44;66.85;103803.31;5073139;28;20028;-64
2023/12/16 06:02:41;;;;;;;16.40;5.45;;;;;;;8.43;67.26;103794.16;5081226;28;20036;-64
2023/12/16 06:05:07;;;;;;;15.85;5.63;;;;;;;8.38;67.24;103788.25;5075818;28;20044;-65
2023/12/16 06:07:32;;;;;;;16.38;4.85;;;;;;;8.37;66.93;103794.84;5079049;28;20567;-65
2023/12/16 06:09:58;;;;;;;13.27;5.07;;;;;;;8.36;67.12;103793.91;5073957;28;20037;-66
2023/12/16 06:12:23;;;;;;;16.73;5.72;;;;;;;8.36;67.48;103806.88;5089452;28;20051;-65
2023/12/16 06:14:48;;;;;;;15.98;4.88;;;;;;;8.39;67.67;103811.25;5078319;28;20033;-64
2023/12/16 06:17:14;;;;;;;14.95;4.93;;;;;;;8.33;67.35;103805.34;5079302;28;20390;-65
2023/12/16 06:19:39;;;;;;;13.55;4.68;;;;;;;8.33;67.27;103810.88;5082099;28;20029;-65
2023/12/16 06:22:04;;;;;;;14.27;4.90;;;;;;;8.28;66.96;103802.19;5079472;28;20043;-65
2023/12/16 06:24:29;;;;;;;14.52;4.82;;;;;;;8.26;67.41;103807.03;5086930;28;20028;-65
2023/12/16 06:26:55;;;;;;;18.13;5.28;;;;;;;8.26;67.12;103803.41;5077506;28;20032;-65
2023/12/16 06:29:20;;;;;;;11.43;4.75;;;;;;;8.27;67.85;103796.81;5081348;28;20089;-65
2023/12/16 06:31:45;;;;;;;14.93;4.97;;;;;;;8.29;67.74;103800.28;5071703;28;20036;-65
2023/12/16 06:34:11;;;;;;;16.42;5.30;;;;;;;8.25;67.54;103798.88;5083312;28;20040;-65
2023/12/16 06:36:36;;;;;;;16.20;4.80;;;;;;;8.24;67.61;103805.44;5075461;28;20411;-65
2023/12/16 06:39:05;;;;;;;13.38;4.60;;;;;;;8.20;67.23;103804.03;5085919;28;20157;-67
2023/12/16 06:41:30;;;;;;;12.85;4.93;;;;;;;8.24;67.42;103809.06;5085436;28;20485;-67
2023/12/16 06:43:56;;;;;;;17.08;4.97;;;;;;;8.26;67.85;103803.41;5090934;28;20028;-65
2023/12/16 06:46:23;;;;;;;16.77;4.72;;;;;;;8.25;67.34;103801.63;5078953;28;20425;-66
2023/12/16 06:48:48;;;;;;;13.95;4.72;;;;;;;8.23;67.24;103800.94;5081507;28;20020;-66
2023/12/16 06:51:13;;;;;;;11.98;4.70;;;;;;;8.22;67.81;103796.47;5082871;28;20066;-67
2023/12/16 06:53:39;;;;;;;14.73;4.57;;;;;;;8.22;67.75;103805.63;5073747;28;20033;-65
2023/12/16 06:56:06;;;;;;;10.90;4.63;;;;;;;8.22;67.61;103813.06;5072736;28;20732;-64
2023/12/16 06:58:32;;;;;;;14.25;4.60;;;;;;;8.19;67.41;103807.84;5082484;28;20356;-65
2023/12/16 07:00:57;;;;;;;16.75;5.03;;;;;;;8.23;68.09;103814.78;5085551;28;20061;-65
2023/12/16 07:03:23;;;;;;;17.13;5.00;;;;;;;8.24;67.75;103809.06;5091801;28;20036;-65
2023/12/16 07:05:48;;;;;;;13.25;4.53;;;;;;;8.21;67.45;103812.16;5092930;28;20032;-66
2023/12/16 07:08:14;;;;;;;14.25;4.60;;;;;;;8.23;67.55;103810.13;5081742;28;20020;-66
2023/12/16 07:10:39;;;;;;;17.08;4.90;;;;;;;8.20;67.57;103813.22;5073710;28;20033;-65
2023/12/16 07:13:05;;;;;;;18.23;5.15;;;;;;;8.18;67.41;103818.06;5090258;28;20081;-66
2023/12/16 07:15:30;;;;;;;13.88;4.60;;;;;;;8.21;68.01;103819.59;5093427;28;20032;-66
2023/12/16 07:17:55;;;;;;;17.40;5.30;;;;;;;8.16;67.17;103817.34;5091005;28;20062;-65
2023/12/16 07:20:21;;;;;;;17.08;4.70;;;;;;;8.18;67.79;103819.97;5073324;28;20025;-65
2023/12/16 07:22:46;;;;;;;18.77;5.07;;;;;;;8.17;67.52;103818.19;5086738;28;20543;-65
2023/12/16 07:25:11;;;;;;;16.00;4.72;;;;;;;8.15;67.48;103825.81;5092416;28;20060;-66
2023/12/16 07:27:36;;;;;;;13.75;4.70;;;;;;;8.15;67.61;103818.38;5093201;28;20049;-65
2023/12/16 07:30:02;;;;;;;18.30;5.07;;;;;;;8.12;68.09;103829.78;5085444;28;20456;-65
2023/12/16 07:32:27;;;;;;;16.02;4.45;;;;;;;8.14;68.13;103833.25;5082685;28;20054;-65
2023/12/16 07:34:56;;;;;;;13.65;4.55;;;;;;;8.07;67.88;103835.78;5093079;28;20383;-65
2023/12/16 07:37:21;;;;;;;14.10;4.32;;;;;;;8.10;67.80;103832.72;5074525;28;20553;-65
2023/12/16 07:39:47;;;;;;;13.20;4.80;;;;;;;8.12;67.99;103841.69;5072236;28;20024;-66
2023/12/16 07:42:13;;;;;;;15.48;4.95;;;;;;;8.07;68.07;103844.09;5072975;28;20056;-65
2023/12/16 07:44:38;;;;;;;15.25;4.72;;;;;;;8.00;67.82;103839.38;5072921;28;20037;-65
2023/12/16 07:47:03;;;;;;;17.70;5.47;;;;;;;8.02;68.51;103835.44;5070898;28;20070;-66
2023/12/16 07:49:29;;;;;;;17.25;4.95;;;;;;;8.01;68.37;103836.44;5072595;28;20457;-65
2023/12/16 07:51:55;;;;;;;15.90;4.38;;;;;;;8.04;68.21;103844.41;5075094;28;20020;-66
2023/12/16 07:54:24;;;;;;;17.80;4.80;;;;;;;8.01;67.98;103833.66;5089818;28;20024;-65
2023/12/16 07:56:50;;;;;;;14.80;4.43;;;;;;;7.98;68.40;103838.69;5092890;28;20471;-66
2023/12/16 07:59:15;;;;;;;15.35;4.60;;;;;;;8.00;68.13;103839.38;5092329;28;20020;-66
2023/12/16 08:01:40;;;;;;;12.60;4.20;;;;;;;7.98;68.21;103838.69;5087501;28;20459;-66
2023/12/16 08:04:06;;;;;;;14.23;4.50;;;;;;;8.01;68.15;103843.88;5080670;28;20466;-65
2023/12/16 08:06:31;;;;;;;16.88;5.18;;;;;;;8.04;67.82;103852.72;5071591;28;20064;-65
2023/12/16 08:08:56;;;;;;;16.58;4.68;;;;;;;8.04;68.55;103855.47;5086016;28;20398;-66
2023/12/16 08:11:22;;;;;;;14.77;4.32;;;;;;;8.06;67.79;103858.97;5090093;28;20024;-65
2023/12/16 08:13:47;;;;;;;14.77;4.25;;;;;;;8.10;68.19;103860.38;5079438;28;20459;-65
2023/12/16 08:16:12;;;;;;;16.58;4.55;;;;;;;8.02;67.71;103862.22;5079103;28;20037;-65
2023/12/16 08:18:40;;;;;;;16.50;4.55;;;;;;;8.01;68.31;103864.09;5092290;28;20024;-65
2023/12/16 08:21:05;;;;;;;18.55;4.28;;;;;;;8.00;68.18;103864.28;5086793;28;20055;-65
2023/12/16 08:23:31;;;;;;;15.50;4.35;;;;;;;8.03;68.37;103873.13;5079380;28;20399;-64
2023/12/16 08:25:56;;;;;;;17.60;4.75;;;;;;;8.01;68.50;103875.16;5082605;28;20562;-64
2023/12/16 08:28:23;;;;;;;15.73;4.20;;;;;;;8.04;68.78;103872.06;5083756;28;20035;-63
2023/12/16 08:30:50;;;;;;;14.18;4.38;;;;;;;7.97;68.76;103884.81;5090605;28;20059;-63
2023/12/16 08:33:15;;;;;;;15.40;4.10;;;;;;;8.02;69.14;103879.69;5086999;28;20114;-63
2023/12/16 08:35:42;;;;;;;14.65;4.03;;;;;;;8.06;68.99;103880.22;5081777;28;20677;-63
2023/12/16 08:38:07;;;;;;;14.07;4.32;;;;;;;8.09;68.52;103883.50;5083028;28;20060;-63
2023/12/16 08:40:32;;;;;;;16.38;4.32;;;;;;;8.10;69.23;103879.75;5086960;28;20075;-65
2023/12/16 08:42:58;;;;;;;14.13;4.03;;;;;;;8.11;68.79;103873.16;5081775;28;20025;-64
2023/12/16 08:45:23;;;;;;;14.23;4.60;;;;;;;8.14;69.83;103873.88;5071251;28;20020;-64
2023/12/16 08:47:51;;;;;;;16.60;4.03;;;;;;;8.17;69.72;103881.84;5082485;28;20024;-64
2023/12/16 08:50:17;;;;;;;11.68;3.70;;;;;;;8.21;69.89;103872.19;5084480;28;20027;-64
2023/12/16 08:52:42;;;;;;;15.68;4.15;;;;;;;8.22;69.73;103869.28;5089769;28;20024;-65
2023/12/16 08:55:07;;;;;;;13.90;4.50;;;;;;;8.22;70.18;103879.47;5089694;28;20039;-66
2023/12/16 08:57:35;;;;;;;16.48;4.38;;;;;;;8.22;70.55;103868.41;5079051;28;20023;-65
2023/12/16 09:00:01;;;;;;;15.02;4.85;;;;;;;8.24;70.90;103863.56;5090034;28;20084;-66
2023/12/16 09:02:26;;;;;;;15.65;4.30;;;;;;;8.24;71.09;103861.66;5081779;28;20033;-65
2023/12/16 09:04:51;;;;;;;17.05;4.75;;;;;;;8.26;70.45;103869.81;5079726;28;20028;-63
2023/12/16 09:07:17;;;;;;;14.93;4.78;;;;;;;8.34;71.28;103869.84;5073693;28;20104;-63
2023/12/16 09:09:44;;;;;;;15.18;4.32;;;;;;;8.36;70.74;103882.47;5085158;28;20016;-63
2023/12/16 09:12:10;;;;;;;23.00;4.60;;;;;;;8.40;70.68;103887.72;5084287;28;20115;-58
2023/12/16 09:14:40;;;;;;;19.50;4.28;;;;;;;8.40;70.83;103885.81;5085351;28;20032;-58
2023/12/16 09:17:05;;;;;;;18.52;4.63;;;;;;;8.44;70.81;103878.91;5080389;28;20924;-58
2023/12/16 09:19:31;;;;;;;16.05;4.25;;;;;;;8.47;71.25;103881.38;5084494;28;20024;-63
2023/12/16 09:21:56;;;;;;;13.13;4.43;;;;;;;8.49;71.34;103882.09;5078181;28;20028;-64
2023/12/16 09:24:21;;;;;;;15.35;4.97;;;;;;;8.49;71.31;103879.31;5085539;28;20449;-63
2023/12/16 09:26:47;;;;;;;14.45;4.80;;;;;;;8.51;71.45;103885.53;5083248;28;20031;-63
2023/12/16 09:29:13;;;;;;;12.43;4.13;;;;;;;8.53;71.21;103888.16;5074936;28;20071;-63
2023/12/16 09:31:38;;;;;;;18.67;5.50;;;;;;;8.54;71.74;103885.22;5073517;28;20487;-62
2023/12/16 09:34:04;;;;;;;23.05;5.45;;;;;;;8.56;71.70;103896.97;5085908;28;20067;-63
2023/12/16 09:36:30;;;;;;;15.82;4.03;;;;;;;8.56;71.63;103896.97;5086417;28;20387;-63
2023/12/16 09:38:58;;;;;;;16.95;4.63;;;;;;;8.56;71.90;103908.03;5072135;28;20033;-64
2023/12/16 09:41:25;;;;;;;17.42;4.68;;;;;;;8.54;72.33;103914.81;5083925;28;20495;-64
2023/12/16 09:43:53;;;;;;;18.50;4.65;;;;;;;8.53;72.39;103905.63;5079887;28;20035;-63
2023/12/16 09:46:19;;;;;;;14.15;4.60;;;;;;;8.55;72.46;103900.78;5080541;28;20352;-64
2023/12/16 09:48:45;;;;;;;15.93;4.85;;;;;;;8.56;72.05;103899.75;5077669;28;20492;-63
2023/12/16 09:51:10;;;;;;;16.17;4.78;;;;;;;8.61;72.59;103902.03;5074334;28;20093;-63
2023/12/16 09:53:36;;;;;;;15.20;4.63;;;;;;;8.60;72.66;103911.34;5072162;28;20033;-63
2023/12/16 09:56:01;;;;;;;16.67;5.53;;;;;;;8.65;72.42;103913.66;5086909;28;20118;-63
2023/12/16 09:58:31;;;;;;;16.83;5.22;;;;;;;8.65;72.87;103913.66;5091066;28;20028;-64
2023/12/16 10:00:58;;;;;;;15.50;4.93;;;;;;;8.59;73.46;103909.63;5082295;28;20024;-64
2023/12/16 10:03:26;;;;;;;18.27;5.25;;;;;;;8.64;72.67;103918.28;5071092;28;20040;-64
2023/12/16 10:05:52;;;;;;;13.73;5.55;;;;;;;8.65;72.83;103908.97;5075710;28;20371;-62
2023/12/16 10:08:17;;;;;;;17.90;5.78;;;;;;;8.69;73.14;103920.59;5076757;28;20025;-62
2023/12/16 10:10:42;;;;;;;18.55;5.53;;;;;;;8.69;73.38;103915.06;5074296;28;20036;-63
2023/12/16 10:13:08;;;;;;;21.10;5.57;;;;;;;8.67;73.57;103917.97;5087027;28;20600;-59
2023/12/16 10:15:34;;;;;;;19.05;5.72;;;;;;;8.72;73.69;103925.78;5088833;28;20527;-64
2023/12/16 10:18:01;;;;;;;20.40;5.90;;;;;;;8.74;73.72;103915.41;5074589;28;20146;-64
2023/12/16 10:20:30;;;;;;;20.80;6.07;;;;;;;8.77;74.09;103926.16;5079515;28;20039;-64
2023/12/16 10:22:59;;;;;;;14.00;5.60;;;;;;;8.87;75.19;103917.72;5087172;28;20036;-61
2023/12/16 10:25:25;;;;;;;19.17;5.97;;;;;;;8.89;74.25;103919.28;5074339;28;20024;-65
2023/12/16 10:28:02;;;;;;;18.60;6.75;;;;;;;8.94;74.07;103922.41;5088676;28;20433;-64
2023/12/16 10:30:28;;;;;;;14.75;5.72;;;;;;;8.93;74.49;103922.59;5092113;28;20024;-64
2023/12/16 10:32:56;;;;;;;20.60;6.50;;;;;;;8.93;74.40;103926.22;5075476;28;20071;-64
2023/12/16 10:35:23;;;;;;;15.68;5.80;;;;;;;8.95;74.86;103915.84;5093537;28;20390;-65
2023/12/16 10:37:49;;;;;;;16.00;5.32;;;;;;;9.25;78.42;103916.28;5093847;28;20055;-64
2023/12/16 10:40:16;;;;;;;16.05;6.88;;;;;;;9.21;75.41;103915.75;5084723;28;20079;-65
2023/12/16 10:42:41;;;;;;;22.80;6.65;;;;;;;9.18;75.12;103916.09;5073479;28;20083;-64
2023/12/16 10:45:07;;;;;;;20.35;6.07;;;;;;;9.16;74.82;103914.53;5093233;28;20364;-65
2023/12/16 10:47:34;;;;;;;16.45;6.20;;;;;;;9.15;75.41;103910.00;5086594;28;20032;-65
2023/12/16 10:50:02;;;;;;;16.63;6.22;;;;;;;9.16;75.27;103911.78;5085415;28;20017;-65
2023/12/16 10:52:34;;;;;;;14.45;5.97;;;;;;;9.14;75.83;103905.53;5089538;28;20541;-63
2023/12/16 10:55:02;;;;;;;;;;;;;;;9.24;74.65;103903.47;5084218;28;20028;-63
2023/12/16 10:57:47;;;;;;;18.33;6.43;;;;;;;9.16;75.71;103914.53;5079133;28;19913;-63
2023/12/16 11:00:20;;;;;;;21.48;6.40;;;;;;;9.12;75.70;103894.63;5092158;28;20028;-62
2023/12/16 11:03:00;;;;;;;20.42;7.07;;;;;;;9.15;76.00;103901.69;5083452;28;20487;-62
2023/12/16 11:05:31;;;;;;;20.63;6.47;;;;;;;9.14;76.34;103895.28;5084393;28;20399;-65
2023/12/16 11:08:02;;;;;;;15.82;5.93;;;;;;;9.12;76.23;103899.25;5084688;28;20424;-65
2023/12/16 11:10:31;;;;;;;19.33;6.88;;;;;;;9.12;76.63;103891.84;5076300;28;20024;-65
2023/12/16 11:13:02;;;;;;;15.93;5.40;;;;;;;9.12;77.17;103889.06;5073821;28;20139;-65
2023/12/16 11:15:29;;;;;;;21.50;7.05;;;;;;;9.15;77.12;103882.31;5074312;28;20555;-65
2023/12/16 11:18:07;;;;;;;17.70;6.10;;;;;;;9.16;76.97;103892.38;5072552;28;20047;-65